ZBTJ

Tianjin Binhai International Airport

Tianjin, China
TAF ZBTJ 141500Z 1418/1518 20004MPS 4000 BR NSC TX05/1507Z TNM06/22Z
Issued Valid From Valid To
Dec-14 @ 15:00 UTC
(7 hours ago)
Dec-14 @ 18:00 UTC
(4 hours ago)
Dec-15 @ 18:00 UTC
(in 20 hours)
Dec-14 @ 18:00 to Dec-15 @ 18:00
TAF ZBTJ 141500Z 1418/1518 20004MPS 4000 BR NSC TX05/1507Z TNM06/22Z
Wind Visibility Clouds Conditions
200° at 8 knots 4,007 meters
  • No significant clouds
  • Mist
TAF ZBTJ 141500Z 1418/1518 20004MPS 4000 BR NSC TX05/1507Z TNM06/22Z
Issued Dec-14 @ 15:00 UTC
(7 hours ago)
Valid From Dec-14 @ 18:00 UTC
(4 hours ago)
Valid To Dec-15 @ 18:00 UTC
(in 20 hours)
Dec-14 @ 18:00 - Dec-15 @ 18:00
Wind Visibility
200° at 8 knots 4,007 meters
Clouds
  • No significant clouds
Conditions
  • Mist